EmailTwitter


Surface observations / United Kingdom / EGLC

Regions: Quebec | Canada | USA | Europe | France | UK | Elsewhere
Station
Display
Info & Location for EGLC | Help decoding METAR

Weather Conditions observed on 2019/05/21 at 02:20 UTC at LONDON CITY AIRP, UK (EGLC)

Temperature: 13.0 Celsius.

Dewpoint: 9.0 Celsius.

Relative Humidity: 77%

Winds: West-northwest at 9 km/h or 5 knots.

Mean Sea level Pressure: 101.60 kilopascals.

Horizontal visibility: 6.21 statute miles or 9.94 kilometers.

Coded METAR:

EGLC 210220Z AUTO 29005KT 260V330 9999 NCD 13/09 Q1016=